Time;durP1;ratioP1;P1;durP2;ratioP2;P2;SDS_P1;SDS_P2;PMS_P1;PMS_P2;Temp;Humidity;BMP_temperature;BMP_pressure;BME280_temperature;BME280_humidity;BME280_pressure;Samples;Min_cycle;Max_cycle;Signal;HPM_P1;HPM_P2
2023/04/04 00:00:41;;;;;;;5.73;2.33;;;3.40;99.90;;;;;;4933650;29;20471;-59
2023/04/04 00:03:10;;;;;;;3.27;2.10;;;3.30;99.90;;;;;;4917184;29;20496;-59
2023/04/04 00:05:39;;;;;;;4.57;2.50;;;3.30;99.90;;;;;;4917475;29;20964;-59
2023/04/04 00:08:08;;;;;;;7.37;2.30;;;3.10;99.90;;;;;;4917785;29;21014;-58
2023/04/04 00:10:36;;;;;;;3.97;2.03;;;2.90;99.90;;;;;;4917315;29;20469;-59
2023/04/04 00:13:06;;;;;;;5.03;2.37;;;2.80;99.90;;;;;;4917377;29;20486;-59
2023/04/04 00:15:35;;;;;;;4.67;2.20;;;2.90;99.90;;;;;;4917494;29;20470;-59
2023/04/04 00:18:03;;;;;;;4.13;2.30;;;2.70;99.90;;;;;;4917570;29;20957;-59
2023/04/04 00:20:31;;;;;;;4.23;2.13;;;2.70;99.90;;;;;;4917392;29;20995;-59
2023/04/04 00:23:01;;;;;;;6.30;2.40;;;2.80;99.90;;;;;;4917684;29;20896;-57
2023/04/04 00:25:29;;;;;;;7.20;2.30;;;2.70;99.90;;;;;;4927984;29;20479;-58
2023/04/04 00:27:59;;;;;;;6.13;2.30;;;2.90;99.90;;;;;;4917844;29;20468;-59
2023/04/04 00:30:28;;;;;;;4.07;2.30;;;3.10;99.90;;;;;;4922975;29;20483;-58
2023/04/04 00:32:56;;;;;;;3.07;2.33;;;3.10;99.90;;;;;;4927307;29;20474;-58
2023/04/04 00:35:25;;;;;;;4.30;2.00;;;2.80;99.90;;;;;;4927064;29;20837;-55
2023/04/04 00:37:53;;;;;;;4.23;2.40;;;2.70;99.90;;;;;;4917270;29;20491;-58
2023/04/04 00:40:23;;;;;;;3.87;2.33;;;2.50;99.90;;;;;;4917033;29;20468;-58
2023/04/04 00:42:51;;;;;;;5.33;2.60;;;2.30;99.90;;;;;;4919068;29;20496;-59
2023/04/04 00:45:20;;;;;;;3.53;2.10;;;2.20;99.90;;;;;;4935908;29;20494;-59
2023/04/04 00:47:49;;;;;;;3.77;2.00;;;2.20;99.90;;;;;;4935673;29;20959;-59
2023/04/04 00:50:17;;;;;;;5.57;2.60;;;2.50;99.90;;;;;;4935509;29;20468;-59
2023/04/04 00:52:45;;;;;;;3.83;2.30;;;2.40;99.90;;;;;;4934383;29;20890;-58
2023/04/04 00:55:13;;;;;;;4.73;2.00;;;2.30;99.90;;;;;;4929662;29;20508;-58
2023/04/04 00:57:43;;;;;;;3.63;2.17;;;2.10;99.90;;;;;;4932705;29;20523;-58
2023/04/04 01:00:14;;;;;;;2.80;2.00;;;2.10;99.90;;;;;;4931212;29;20551;-58
2023/04/04 01:02:43;;;;;;;5.43;2.27;;;2.50;99.90;;;;;;4924384;29;20478;-59
2023/04/04 01:05:12;;;;;;;5.63;2.17;;;2.40;99.90;;;;;;4928048;29;20486;-58
2023/04/04 01:07:41;;;;;;;2.53;2.13;;;2.40;99.90;;;;;;4915165;29;20468;-58
2023/04/04 01:10:11;;;;;;;5.97;2.57;;;2.50;99.90;;;;;;4915306;29;20481;-59
2023/04/04 01:12:42;;;;;;;3.80;2.37;;;2.30;99.90;;;;;;4915147;29;20986;-58
2023/04/04 01:15:11;;;;;;;3.23;2.30;;;2.40;99.90;;;;;;4915257;29;20475;-59
2023/04/04 01:17:40;;;;;;;4.20;2.23;;;2.50;99.90;;;;;;4916187;29;20490;-59
2023/04/04 01:20:12;;;;;;;4.50;2.30;;;2.40;99.90;;;;;;4915227;29;20519;-58
2023/04/04 01:22:47;;;;;;;7.60;2.90;;;2.30;99.90;;;;;;4915000;29;20467;-59
2023/04/04 01:25:18;;;;;;;3.63;2.43;;;2.30;99.90;;;;;;4925327;29;20613;-59
2023/04/04 01:27:55;;;;;;;5.33;2.40;;;2.20;99.90;;;;;;4934095;29;20477;-58
2023/04/04 01:30:26;;;;;;;4.13;1.97;;;2.30;99.90;;;;;;4926003;29;20464;-57
2023/04/04 01:32:59;;;;;;;5.73;2.30;;;2.50;99.90;;;;;;4925025;29;20470;-58
2023/04/04 01:35:35;;;;;;;5.63;2.50;;;2.60;99.90;;;;;;4922211;29;20876;-58
2023/04/04 01:38:14;;;;;;;3.70;2.07;;;2.50;99.90;;;;;;4915051;29;20492;-58
2023/04/04 01:40:48;;;;;;;6.53;2.33;;;2.70;99.90;;;;;;4914796;29;20562;-58
2023/04/04 01:43:18;;;;;;;4.00;2.40;;;2.50;99.90;;;;;;4914943;29;20482;-58
2023/04/04 01:45:47;;;;;;;4.50;2.40;;;2.50;99.90;;;;;;4914883;29;20562;-58
2023/04/04 01:48:15;;;;;;;4.03;2.20;;;2.50;99.90;;;;;;4920016;29;20511;-58
2023/04/04 01:50:48;;;;;;;3.83;2.20;;;2.80;99.90;;;;;;4918556;29;20813;-59
2023/04/04 01:53:16;;;;;;;3.07;2.10;;;2.70;99.90;;;;;;4921090;29;20476;-58
2023/04/04 01:55:44;;;;;;;4.70;2.60;;;2.60;99.90;;;;;;4929858;29;20879;-58
2023/04/04 01:58:14;;;;;;;6.53;2.80;;;2.60;99.90;;;;;;4919716;29;20511;-58
2023/04/04 02:00:43;;;;;;;3.03;2.30;;;2.60;99.90;;;;;;4949670;29;20474;-58
2023/04/04 02:03:12;;;;;;;6.60;2.60;;;2.50;99.90;;;;;;4924900;29;20487;-59
2023/04/04 02:05:40;;;;;;;4.23;2.60;;;2.60;99.90;;;;;;4918225;29;20999;-58
2023/04/04 02:08:09;;;;;;;4.57;2.67;;;2.50;99.90;;;;;;4918448;29;20477;-59
2023/04/04 02:10:46;;;;;;;6.40;2.37;;;2.50;99.90;;;;;;4919460;29;20463;-58
2023/04/04 02:13:14;;;;;;;5.43;2.50;;;2.30;99.90;;;;;;4919639;29;20466;-59
2023/04/04 02:15:43;;;;;;;4.17;2.30;;;2.30;99.90;;;;;;4919418;29;20460;-59
2023/04/04 02:18:11;;;;;;;5.73;2.97;;;2.30;99.90;;;;;;4934737;29;20481;-59
2023/04/04 02:20:39;;;;;;;4.50;2.40;;;2.40;99.90;;;;;;4936984;29;20482;-59
2023/04/04 02:23:08;;;;;;;6.27;2.60;;;2.30;99.90;;;;;;4937120;29;20506;-59
2023/04/04 02:25:36;;;;;;;3.87;2.50;;;2.40;99.90;;;;;;4928861;29;20986;-59
2023/04/04 02:28:04;;;;;;;8.30;3.20;;;2.30;99.90;;;;;;4933930;29;20979;-58
2023/04/04 02:30:32;;;;;;;5.63;2.63;;;2.30;99.90;;;;;;4933600;29;20493;-58
2023/04/04 02:33:04;;;;;;;3.93;2.63;;;2.50;99.90;;;;;;4925789;29;20476;-58
2023/04/04 02:35:32;;;;;;;6.23;2.90;;;2.70;99.90;;;;;;4919035;29;20896;-59
2023/04/04 02:38:01;;;;;;;5.53;2.33;;;2.40;99.90;;;;;;4921835;29;21030;-58
2023/04/04 02:40:40;;;;;;;7.00;2.90;;;2.40;99.90;;;;;;4917696;29;20486;-59
2023/04/04 02:43:09;;;;;;;4.03;2.60;;;2.40;99.90;;;;;;4917805;29;20504;-59
2023/04/04 02:45:38;;;;;;;3.90;2.30;;;2.20;99.90;;;;;;4917615;29;20921;-58
2023/04/04 02:48:21;;;;;;;3.67;2.47;;;2.40;99.90;;;;;;4935099;29;20478;-59
2023/04/04 02:50:52;;;;;;;3.67;2.43;;;2.30;99.90;;;;;;4952711;29;20899;-59
2023/04/04 02:53:20;;;;;;;4.97;2.40;;;2.40;99.90;;;;;;4937860;29;20910;-58
2023/04/04 02:55:50;;;;;;;4.50;2.40;;;2.40;99.90;;;;;;4927914;29;20916;-58
2023/04/04 02:58:18;;;;;;;4.73;2.50;;;2.60;99.90;;;;;;4936375;29;20473;-59
2023/04/04 03:00:47;;;;;;;7.23;2.60;;;2.80;99.90;;;;;;4932654;29;21053;-59
2023/04/04 03:03:15;;;;;;;3.43;2.30;;;2.40;99.90;;;;;;4945894;29;20501;-59
2023/04/04 03:05:48;;;;;;;5.10;2.33;;;2.30;99.90;;;;;;4952151;29;20502;-58
2023/04/04 03:08:16;;;;;;;5.77;2.73;;;2.60;99.90;;;;;;4936365;29;20471;-59
2023/04/04 03:10:45;;;;;;;6.80;3.00;;;2.70;99.90;;;;;;4937421;29;20458;-59
2023/04/04 03:13:13;;;;;;;6.53;2.93;;;2.60;99.90;;;;;;4952200;29;20478;-58
2023/04/04 03:15:42;;;;;;;5.33;3.00;;;2.40;99.90;;;;;;4952083;29;20946;-59
2023/04/04 03:18:16;;;;;;;6.70;2.80;;;2.20;99.90;;;;;;4917256;29;20478;-58
2023/04/04 03:20:45;;;;;;;6.87;3.00;;;2.00;99.90;;;;;;4917023;29;21006;-59
2023/04/04 03:23:14;;;;;;;4.83;3.00;;;2.10;99.90;;;;;;4920335;29;20555;-59
2023/04/04 03:25:42;;;;;;;4.17;2.50;;;2.20;99.90;;;;;;4943155;29;20630;-59
2023/04/04 03:28:11;;;;;;;5.23;3.00;;;2.30;99.90;;;;;;4917652;29;20483;-58
2023/04/04 03:30:40;;;;;;;5.03;3.30;;;2.40;99.90;;;;;;4932064;29;20491;-58
2023/04/04 03:33:08;;;;;;;4.87;2.47;;;2.20;99.90;;;;;;4927870;29;20884;-58
2023/04/04 03:35:39;;;;;;;5.03;3.40;;;2.50;99.90;;;;;;4935629;29;20870;-59
2023/04/04 03:38:08;;;;;;;5.60;3.10;;;2.60;99.90;;;;;;4937186;29;21000;-59
2023/04/04 03:40:37;;;;;;;4.10;3.10;;;2.50;99.90;;;;;;4936625;29;20472;-59
2023/04/04 03:43:11;;;;;;;5.80;3.03;;;2.50;99.90;;;;;;4951419;29;21012;-59
2023/04/04 03:45:41;;;;;;;6.17;3.60;;;2.40;99.90;;;;;;4935234;29;21014;-58
2023/04/04 03:48:10;;;;;;;4.23;3.10;;;2.40;99.90;;;;;;4936888;29;20462;-58
2023/04/04 03:50:39;;;;;;;5.53;2.90;;;2.20;99.90;;;;;;4935447;29;20489;-59
2023/04/04 03:53:08;;;;;;;6.30;3.47;;;2.20;99.90;;;;;;4935464;29;21066;-59
2023/04/04 03:55:40;;;;;;;6.20;3.03;;;2.20;99.90;;;;;;4928627;29;20951;-59
2023/04/04 03:58:08;;;;;;;6.00;3.20;;;2.30;99.90;;;;;;4916818;29;20915;-58
2023/04/04 04:00:36;;;;;;;5.63;3.20;;;2.00;99.90;;;;;;4935985;29;20472;-58
2023/04/04 04:03:05;;;;;;;6.73;3.03;;;1.90;99.90;;;;;;4923635;29;20493;-58
2023/04/04 04:05:33;;;;;;;5.93;3.17;;;1.80;99.90;;;;;;4917394;29;20496;-59
2023/04/04 04:08:01;;;;;;;5.77;3.13;;;1.70;99.90;;;;;;4917531;29;20855;-58
2023/04/04 04:10:29;;;;;;;6.03;2.70;;;1.80;99.90;;;;;;4922467;29;20475;-58
2023/04/04 04:13:00;;;;;;;3.83;2.87;;;2.10;99.90;;;;;;4935199;29;20483;-58
2023/04/04 04:15:28;;;;;;;4.20;2.83;;;1.90;99.90;;;;;;4950908;29;21062;-58
2023/04/04 04:17:59;;;;;;;5.07;2.90;;;1.70;99.90;;;;;;4935047;29;20556;-58
2023/04/04 04:20:28;;;;;;;4.70;2.93;;;1.70;99.90;;;;;;4934898;29;20495;-58
2023/04/04 04:22:57;;;;;;;4.47;3.27;;;1.90;99.90;;;;;;4935047;29;20532;-59
2023/04/04 04:25:25;;;;;;;4.60;3.10;;;2.00;99.90;;;;;;4924824;29;20491;-58
2023/04/04 04:28:02;;;;;;;5.60;3.07;;;2.00;99.90;;;;;;4934570;29;20581;-59
2023/04/04 04:30:31;;;;;;;6.63;3.47;;;2.10;99.90;;;;;;4930031;29;20975;-59
2023/04/04 04:32:59;;;;;;;5.77;3.27;;;2.10;99.90;;;;;;4925323;29;20466;-58
2023/04/04 04:35:36;;;;;;;6.03;3.13;;;1.80;99.90;;;;;;4915596;29;20569;-58
2023/04/04 04:38:05;;;;;;;5.57;2.70;;;1.80;99.90;;;;;;4915774;29;20566;-58
2023/04/04 04:40:33;;;;;;;7.00;3.87;;;1.90;99.90;;;;;;4923941;29;20889;-59
2023/04/04 04:43:08;;;;;;;5.57;3.70;;;2.00;99.90;;;;;;4931573;29;21040;-58
2023/04/04 04:45:37;;;;;;;3.37;3.07;;;1.80;99.90;;;;;;4917499;29;20908;-59
2023/04/04 04:48:08;;;;;;;4.57;3.00;;;2.00;99.90;;;;;;4915685;29;20473;-59
2023/04/04 04:50:43;;;;;;;5.63;3.23;;;1.90;99.90;;;;;;4915451;29;20572;-59
2023/04/04 04:53:14;;;;;;;5.40;3.63;;;2.00;99.90;;;;;;4918942;29;20994;-58
2023/04/04 04:55:46;;;;;;;5.47;3.67;;;2.10;99.90;;;;;;4925225;29;20515;-59
2023/04/04 04:58:16;;;;;;;4.83;3.43;;;2.30;99.90;;;;;;4916752;29;20970;-58
2023/04/04 05:00:48;;;;;;;5.07;3.30;;;2.30;99.90;;;;;;4917687;29;20829;-58
2023/04/04 05:03:16;;;;;;;5.80;3.60;;;2.20;99.90;;;;;;4927755;29;20483;-58
2023/04/04 05:05:49;;;;;;;6.97;3.87;;;2.40;99.90;;;;;;4934377;29;20589;-59
2023/04/04 05:08:17;;;;;;;7.70;3.60;;;2.30;99.90;;;;;;4935644;29;20464;-58
2023/04/04 05:11:00;;;;;;;5.03;3.70;;;2.20;99.90;;;;;;4925788;29;20848;-58
2023/04/04 05:13:34;;;;;;;6.90;3.87;;;2.10;99.90;;;;;;4929984;29;20558;-58
2023/04/04 05:16:03;;;;;;;5.97;3.37;;;2.00;99.90;;;;;;4950188;29;20875;-58
2023/04/04 05:18:32;;;;;;;4.83;2.87;;;2.00;99.90;;;;;;4950019;29;20476;-58
2023/04/04 05:21:01;;;;;;;5.40;4.20;;;2.20;99.90;;;;;;4933060;29;20495;-59
2023/04/04 05:23:30;;;;;;;6.57;4.33;;;2.10;99.90;;;;;;4918696;29;20490;-59
2023/04/04 05:25:58;;;;;;;4.73;4.00;;;1.90;99.90;;;;;;4915130;29;20498;-57
2023/04/04 05:28:30;;;;;;;3.80;3.40;;;1.90;99.90;;;;;;4918144;29;20482;-59
2023/04/04 05:31:03;;;;;;;7.13;3.60;;;1.90;99.90;;;;;;4933529;29;20485;-59
2023/04/04 05:33:33;;;;;;;4.93;3.20;;;1.90;99.90;;;;;;4937700;29;20561;-58
2023/04/04 05:36:12;;;;;;;5.40;4.03;;;2.30;99.90;;;;;;4925620;29;20486;-58
2023/04/04 05:38:49;;;;;;;6.33;3.50;;;2.50;99.90;;;;;;4935375;29;20461;-58
2023/04/04 05:41:20;;;;;;;5.80;3.80;;;2.70;99.90;;;;;;4935320;29;20978;-59
2023/04/04 05:43:51;;;;;;;6.47;3.80;;;2.90;99.90;;;;;;4933907;29;20497;-59
2023/04/04 05:46:24;;;;;;;8.33;4.07;;;2.60;99.90;;;;;;4933809;29;20589;-58
2023/04/04 05:48:54;;;;;;;4.40;3.13;;;2.40;99.90;;;;;;4933921;29;20982;-57
2023/04/04 05:51:23;;;;;;;8.17;4.17;;;2.40;99.90;;;;;;4933799;29;20472;-58
2023/04/04 05:54:06;;;;;;;4.27;3.50;;;2.40;99.90;;;;;;4933884;29;20481;-58
2023/04/04 05:56:35;;;;;;;5.70;3.17;;;2.30;99.90;;;;;;4933753;29;20510;-59
2023/04/04 05:59:07;;;;;;;7.87;3.53;;;2.60;99.90;;;;;;4933130;29;20474;-59
2023/04/04 06:01:52;;;;;;;6.97;3.83;;;2.90;99.90;;;;;;4951534;28;20502;-58
2023/04/04 06:04:20;;;;;;;5.40;3.50;;;2.90;99.90;;;;;;4920059;29;20510;-58
2023/04/04 06:06:48;;;;;;;6.43;3.90;;;3.10;99.90;;;;;;4916130;29;20499;-59
2023/04/04 06:09:16;;;;;;;5.03;3.50;;;2.80;99.90;;;;;;4914820;29;20468;-58
2023/04/04 06:11:45;;;;;;;6.57;3.73;;;3.00;99.90;;;;;;4914556;29;20475;-59
2023/04/04 06:14:13;;;;;;;5.77;4.00;;;3.00;99.90;;;;;;4924010;29;20479;-59
2023/04/04 06:16:43;;;;;;;7.97;3.97;;;3.30;99.90;;;;;;4933159;29;20478;-57
2023/04/04 06:19:13;;;;;;;9.83;4.30;;;3.40;99.90;;;;;;4933688;29;20505;-58
2023/04/04 06:21:41;;;;;;;4.47;3.43;;;3.30;99.90;;;;;;4933466;29;20464;-59
2023/04/04 06:24:12;;;;;;;4.77;3.60;;;3.30;99.90;;;;;;4933628;29;20470;-58
2023/04/04 06:26:41;;;;;;;6.87;4.07;;;3.50;99.90;;;;;;4934684;29;20483;-59
2023/04/04 06:29:09;;;;;;;8.47;4.30;;;3.60;99.90;;;;;;4925692;29;20600;-59
2023/04/04 06:31:39;;;;;;;7.17;3.63;;;3.70;99.90;;;;;;4942792;29;20896;-59
2023/04/04 06:34:13;;;;;;;6.47;4.13;;;3.80;99.90;;;;;;4936959;29;20482;-59
2023/04/04 06:37:01;;;;;;;8.93;4.07;;;3.90;99.90;;;;;;4934281;29;20475;-59
2023/04/04 06:39:34;;;;;;;6.07;4.33;;;4.10;99.90;;;;;;4936740;29;20881;-59
2023/04/04 06:42:07;;;;;;;7.17;4.20;;;4.30;99.90;;;;;;4936873;29;20493;-59
2023/04/04 06:44:36;;;;;;;5.60;4.27;;;4.50;99.90;;;;;;4936646;29;20478;-59
2023/04/04 06:47:05;;;;;;;7.93;4.40;;;4.70;99.90;;;;;;4937972;29;20491;-59
2023/04/04 06:49:34;;;;;;;7.37;4.43;;;4.90;99.90;;;;;;4937784;29;20462;-59
2023/04/04 06:52:03;;;;;;;9.30;4.63;;;5.10;99.90;;;;;;4952652;29;20478;-59
2023/04/04 06:54:32;;;;;;;6.63;4.20;;;5.30;99.90;;;;;;4946279;29;20987;-59
2023/04/04 06:57:00;;;;;;;7.57;4.40;;;5.50;99.90;;;;;;4933701;29;20503;-59
2023/04/04 06:59:28;;;;;;;6.27;3.73;;;5.80;99.90;;;;;;4927287;29;20718;-59
2023/04/04 07:01:57;;;;;;;6.37;4.20;;;5.90;99.90;;;;;;4930608;29;20564;-59
2023/04/04 07:04:26;;;;;;;7.70;4.07;;;6.10;99.90;;;;;;4928899;29;20827;-59
2023/04/04 07:06:55;;;;;;;4.20;3.30;;;6.20;99.90;;;;;;4928899;29;20314;-59
2023/04/04 07:09:23;;;;;;;7.97;3.83;;;6.40;99.90;;;;;;4927628;29;20228;-59
2023/04/04 07:11:56;;;;;;;4.40;3.10;;;6.50;99.90;;;;;;4926665;29;20224;-59
2023/04/04 07:14:35;;;;;;;5.83;3.13;;;6.70;99.90;;;;;;4937642;29;20572;-60
2023/04/04 07:17:03;;;;;;;6.17;3.10;;;6.80;99.90;;;;;;4937454;29;20232;-60
2023/04/04 07:19:48;;;;;;;5.50;3.17;;;7.00;99.90;;;;;;4937502;29;20239;-59
2023/04/04 07:22:18;;;;;;;5.57;3.03;;;7.20;99.90;;;;;;4927393;29;20236;-60
2023/04/04 07:24:47;;;;;;;4.37;2.60;;;7.40;99.90;;;;;;4935642;29;20236;-59
2023/04/04 07:27:15;;;;;;;4.43;2.50;;;7.60;99.90;;;;;;4923452;29;20290;-58
2023/04/04 07:29:43;;;;;;;7.47;2.70;;;7.80;99.90;;;;;;4926726;29;20584;-60
2023/04/04 07:32:11;;;;;;;6.30;2.23;;;7.90;99.90;;;;;;4926295;29;20252;-60
2023/04/04 07:34:39;;;;;;;5.00;2.63;;;8.00;99.90;;;;;;4928759;29;20263;-60
2023/04/04 07:37:07;;;;;;;5.47;2.53;;;8.10;99.90;;;;;;4926655;29;20230;-60
2023/04/04 07:39:37;;;;;;;3.73;2.27;;;8.30;99.90;;;;;;4917869;29;20239;-60
2023/04/04 07:42:05;;;;;;;4.77;1.93;;;8.50;99.90;;;;;;4918293;29;20237;-59
2023/04/04 07:44:33;;;;;;;5.23;2.00;;;8.60;99.90;;;;;;4917836;29;20224;-60
2023/04/04 07:47:01;;;;;;;5.47;2.03;;;8.80;99.90;;;;;;4926653;29;20232;-59
2023/04/04 07:49:37;;;;;;;5.33;2.20;;;9.00;99.90;;;;;;4926807;29;20221;-60
2023/04/04 07:52:06;;;;;;;7.07;2.30;;;9.10;99.90;;;;;;4926133;29;20233;-59
2023/04/04 07:54:34;;;;;;;3.87;2.27;;;9.20;99.90;;;;;;4918096;29;20233;-57
2023/04/04 07:57:04;;;;;;;3.87;1.97;;;9.30;99.90;;;;;;4927868;29;20313;-58
2023/04/04 07:59:33;;;;;;;3.33;2.00;;;9.40;99.90;;;;;;4926843;29;20230;-60
2023/04/04 08:02:01;;;;;;;2.70;1.90;;;9.50;99.90;;;;;;4928137;29;20235;-58
2023/04/04 08:04:29;;;;;;;3.73;1.90;;;9.40;99.90;;;;;;4918781;29;20245;-59
2023/04/04 08:06:57;;;;;;;3.33;2.00;;;9.50;99.90;;;;;;4924765;29;20685;-59
2023/04/04 08:09:30;;;;;;;5.73;2.00;;;9.70;99.90;;;;;;4924443;29;20253;-59
2023/04/04 08:11:58;;;;;;;3.40;1.50;;;9.60;99.90;;;;;;4917759;29;20229;-59
2023/04/04 08:14:27;;;;;;;2.53;1.57;;;9.50;99.90;;;;;;4923132;29;20313;-57
2023/04/04 08:16:55;;;;;;;3.93;1.73;;;9.40;99.90;;;;;;4926222;29;20229;-59
2023/04/04 08:19:23;;;;;;;5.13;2.50;;;9.30;99.90;;;;;;4936232;29;20668;-59
2023/04/04 08:21:52;;;;;;;2.63;1.60;;;9.40;99.90;;;;;;4927751;29;20235;-59
2023/04/04 08:24:21;;;;;;;3.77;1.77;;;9.30;99.90;;;;;;4927312;29;20220;-59
2023/04/04 08:26:49;;;;;;;4.50;1.90;;;9.40;99.90;;;;;;4926820;29;20626;-58
2023/04/04 08:29:33;;;;;;;2.13;1.20;;;9.60;99.90;;;;;;4924454;29;20221;-59
2023/04/04 08:32:01;;;;;;;6.77;1.87;;;9.90;99.90;;;;;;4928946;29;20229;-59
2023/04/04 08:34:29;;;;;;;3.70;1.97;;;10.10;99.90;;;;;;4925699;29;20230;-59
2023/04/04 08:36:57;;;;;;;4.20;1.87;;;10.30;99.90;;;;;;4925038;29;20226;-60
2023/04/04 08:39:25;;;;;;;4.13;1.60;;;10.60;99.90;;;;;;4926448;29;20585;-58
2023/04/04 08:42:02;;;;;;;4.67;1.80;;;10.80;99.90;;;;;;4925394;29;20745;-58
2023/04/04 08:44:33;;;;;;;3.00;1.53;;;11.00;99.90;;;;;;4926243;29;20253;-58
2023/04/04 08:47:04;;;;;;;3.37;1.87;;;11.10;99.90;;;;;;4920486;29;20239;-59
2023/04/04 08:49:35;;;;;;;3.33;1.50;;;11.20;99.90;;;;;;4918614;29;20707;-59
2023/04/04 08:52:06;;;;;;;2.80;1.53;;;11.30;99.90;;;;;;4921403;29;20250;-59
2023/04/04 08:54:35;;;;;;;3.27;1.60;;;11.70;99.90;;;;;;4920706;29;20281;-59
2023/04/04 08:57:03;;;;;;;3.03;1.57;;;11.60;99.90;;;;;;4935292;29;20269;-57
2023/04/04 08:59:33;;;;;;;3.83;1.77;;;11.90;99.90;;;;;;4935584;29;20694;-59
2023/04/04 09:02:05;;;;;;;3.17;1.40;;;12.10;99.90;;;;;;4931906;29;20713;-60
2023/04/04 09:04:33;;;;;;;2.93;1.90;;;12.40;99.90;;;;;;4926534;29;20238;-59
2023/04/04 09:07:03;;;;;;;2.33;1.30;;;12.80;99.90;;;;;;4935631;29;20243;-58
2023/04/04 09:09:33;;;;;;;4.27;1.80;;;13.00;99.90;;;;;;4933138;29;20671;-59
2023/04/04 09:12:02;;;;;;;2.70;1.53;;;12.90;99.90;;;;;;4924314;29;20219;-59
2023/04/04 09:14:33;;;;;;;3.23;2.03;;;12.70;99.90;;;;;;4925088;29;20231;-59
2023/04/04 09:17:02;;;;;;;3.70;1.60;;;12.40;99.90;;;;;;4924292;29;20676;-59
2023/04/04 09:19:30;;;;;;;3.60;1.80;;;12.20;99.90;;;;;;4925892;29;20231;-59
2023/04/04 09:21:58;;;;;;;3.47;1.40;;;12.10;99.90;;;;;;4935175;29;20701;-59
2023/04/04 09:24:38;;;;;;;3.47;1.70;;;12.10;99.90;;;;;;4934434;29;20233;-56
2023/04/04 09:27:08;;;;;;;5.33;1.60;;;12.00;99.90;;;;;;4932263;29;20235;-59
2023/04/04 09:29:40;;;;;;;2.53;1.23;;;12.00;99.90;;;;;;4925019;29;20232;-59
2023/04/04 09:32:09;;;;;;;4.77;1.47;;;12.00;99.90;;;;;;4930832;29;20227;-59
2023/04/04 09:34:38;;;;;;;2.57;1.60;;;11.80;99.90;;;;;;4928776;29;20774;-59
2023/04/04 09:37:06;;;;;;;3.37;1.67;;;11.70;99.90;;;;;;4935362;29;20262;-59
2023/04/04 09:39:35;;;;;;;3.70;1.73;;;11.50;99.90;;;;;;4935355;29;20719;-59
2023/04/04 09:42:03;;;;;;;3.73;1.70;;;11.30;99.90;;;;;;4922932;29;20254;-59
2023/04/04 09:44:33;;;;;;;4.20;1.60;;;11.10;99.90;;;;;;4916323;29;20810;-59
2023/04/04 09:47:24;;;;;;;2.43;1.40;;;11.10;99.90;;;;;;4916273;29;20326;-59
2023/04/04 09:49:58;;;;;;;3.37;1.67;;;11.10;99.90;;;;;;4916437;29;20703;-59
2023/04/04 09:52:27;;;;;;;4.13;1.70;;;11.30;99.90;;;;;;4914682;29;20700;-57
2023/04/04 09:54:57;;;;;;;5.03;1.70;;;11.40;99.90;;;;;;4916442;29;20236;-59
2023/04/04 09:57:27;;;;;;;3.60;1.70;;;11.80;99.90;;;;;;4916322;29;20236;-58
2023/04/04 09:59:58;;;;;;;1.63;1.23;;;11.90;99.90;;;;;;4927460;29;20234;-59
2023/04/04 10:02:31;;;;;;;3.53;1.60;;;12.30;99.90;;;;;;4927720;29;20251;-57
2023/04/04 10:05:00;;;;;;;3.00;1.70;;;12.60;99.90;;;;;;4916753;29;20632;-59
2023/04/04 10:07:32;;;;;;;4.93;1.77;;;12.80;99.90;;;;;;4916940;29;20236;-59
2023/04/04 10:10:02;;;;;;;3.27;1.70;;;12.80;99.90;;;;;;4919661;29;20248;-59
2023/04/04 10:12:32;;;;;;;2.60;1.47;;;13.10;99.90;;;;;;4919673;29;20243;-59
2023/04/04 10:15:00;;;;;;;3.23;1.50;;;13.10;99.90;;;;;;4919860;29;20327;-60
2023/04/04 10:17:36;;;;;;;2.50;1.57;;;13.10;99.90;;;;;;4919369;29;20231;-59
2023/04/04 10:20:07;;;;;;;4.37;1.60;;;13.10;99.90;;;;;;4919495;29;20279;-60
2023/04/04 10:22:37;;;;;;;3.07;1.47;;;13.20;99.90;;;;;;4919562;29;20324;-59
2023/04/04 10:25:08;;;;;;;3.53;1.57;;;13.50;99.90;;;;;;4930163;29;20735;-57
2023/04/04 10:27:37;;;;;;;2.50;1.67;;;13.70;99.90;;;;;;4938197;29;20649;-60
2023/04/04 10:30:07;;;;;;;3.03;2.13;;;13.50;99.90;;;;;;4935242;29;20658;-59
2023/04/04 10:32:44;;;;;;;5.17;2.00;;;13.10;99.90;;;;;;4930138;29;20232;-59
2023/04/04 10:35:13;;;;;;;4.07;1.80;;;13.40;99.90;;;;;;4921836;29;20263;-60
2023/04/04 10:37:45;;;;;;;2.67;1.50;;;13.20;99.40;;;;;;4919069;29;20216;-59
2023/04/04 10:40:16;;;;;;;5.43;1.97;;;12.90;99.90;;;;;;4919481;29;20585;-59
2023/04/04 10:42:45;;;;;;;4.13;2.00;;;12.60;99.50;;;;;;4918939;29;20243;-59
2023/04/04 10:45:15;;;;;;;3.97;2.03;;;12.00;99.90;;;;;;4919339;29;20246;-59
2023/04/04 10:47:51;;;;;;;3.63;2.10;;;12.40;99.90;;;;;;4919214;29;20583;-60
2023/04/04 10:50:20;;;;;;;3.17;2.10;;;13.00;99.90;;;;;;4931605;29;20770;-59
2023/04/04 10:52:49;;;;;;;4.20;2.20;;;13.60;99.90;;;;;;4938118;29;20583;-60
2023/04/04 10:55:17;;;;;;;3.27;2.17;;;13.70;99.90;;;;;;4925875;29;20236;-59
2023/04/04 10:57:50;;;;;;;2.70;1.80;;;14.10;99.90;;;;;;4918680;29;20233;-60
2023/04/04 11:00:22;;;;;;;3.40;2.00;;;14.30;99.90;;;;;;4932385;29;20288;-60
2023/04/04 11:02:56;;;;;;;4.17;2.03;;;14.30;99.90;;;;;;4928033;29;20259;-60
2023/04/04 11:05:25;;;;;;;2.87;2.03;;;14.10;99.90;;;;;;4918627;29;20242;-58
2023/04/04 11:07:57;;;;;;;5.07;2.37;;;14.30;99.90;;;;;;4918716;29;20240;-59
2023/04/04 11:10:30;;;;;;;4.20;2.13;;;14.40;99.50;;;;;;4918346;29;20321;-59
2023/04/04 11:13:06;;;;;;;3.57;2.20;;;14.70;99.90;;;;;;4918493;29;20279;-60
2023/04/04 11:15:54;;;;;;;5.93;2.37;;;14.80;99.70;;;;;;4918454;29;20221;-59
2023/04/04 11:18:46;;;;;;;4.20;2.10;;;14.70;98.30;;;;;;4918126;29;20232;-59
2023/04/04 11:21:17;;;;;;;4.73;2.37;;;14.70;99.00;;;;;;4918444;29;20260;-59
2023/04/04 11:24:17;;;;;;;5.07;2.13;;;14.70;98.60;;;;;;4918553;29;20723;-59
2023/04/04 11:26:46;;;;;;;6.80;2.70;;;14.90;98.00;;;;;;4918192;29;20241;-60
2023/04/04 11:29:22;;;;;;;4.83;2.90;;;14.60;95.80;;;;;;4923810;29;20622;-60
2023/04/04 11:31:51;;;;;;;4.23;2.20;;;14.10;97.00;;;;;;4934948;29;20232;-59
2023/04/04 11:34:33;;;;;;;4.43;2.23;;;14.20;97.60;;;;;;4918512;29;20697;-60
2023/04/04 11:37:16;;;;;;;4.20;2.43;;;14.10;99.60;;;;;;4918292;29;20228;-60
2023/04/04 11:39:55;;;;;;;5.23;2.33;;;14.10;95.70;;;;;;4918006;29;20640;-59
2023/04/04 11:42:23;;;;;;;6.23;2.60;;;14.30;98.70;;;;;;4917338;29;20228;-60
2023/04/04 11:45:06;;;;;;;3.43;2.20;;;14.70;96.80;;;;;;4918069;29;20235;-60
2023/04/04 11:47:34;;;;;;;4.73;2.40;;;14.60;97.50;;;;;;4918039;29;20232;-59
2023/04/04 11:50:09;;;;;;;5.63;2.90;;;14.60;98.10;;;;;;4917948;29;20233;-59
2023/04/04 11:52:38;;;;;;;3.83;2.30;;;14.40;95.30;;;;;;4918032;29;20232;-60
2023/04/04 11:55:15;;;;;;;3.93;2.50;;;14.20;96.60;;;;;;4917892;29;20236;-60
2023/04/04 11:57:43;;;;;;;5.03;2.57;;;14.00;95.40;;;;;;4917886;29;20591;-60
2023/04/04 12:00:14;;;;;;;4.37;2.73;;;13.80;96.30;;;;;;4930441;29;20224;-59
2023/04/04 12:02:42;;;;;;;6.40;2.50;;;13.90;97.60;;;;;;4927839;29;20700;-60
2023/04/04 12:05:13;;;;;;;4.80;2.70;;;13.70;97.80;;;;;;4917691;29;20248;-60
2023/04/04 12:07:41;;;;;;;5.40;2.90;;;13.00;95.50;;;;;;4917712;29;20249;-59
2023/04/04 12:10:10;;;;;;;4.87;2.50;;;12.30;96.70;;;;;;4917536;29;20246;-59
2023/04/04 12:12:39;;;;;;;4.20;2.53;;;12.60;99.90;;;;;;4917339;29;20233;-59
2023/04/04 12:15:09;;;;;;;4.00;2.90;;;12.90;99.90;;;;;;4917733;29;20243;-59
2023/04/04 12:17:47;;;;;;;4.37;2.57;;;13.00;98.80;;;;;;4917549;29;20340;-59
2023/04/04 12:20:17;;;;;;;6.00;2.73;;;13.10;98.70;;;;;;4917324;29;20328;-59
2023/04/04 12:22:49;;;;;;;5.20;2.60;;;13.00;98.70;;;;;;4917814;29;20237;-60
2023/04/04 12:25:19;;;;;;;3.77;2.30;;;12.90;98.80;;;;;;4917492;29;20580;-60
2023/04/04 12:27:48;;;;;;;4.53;2.47;;;13.10;97.10;;;;;;4917383;29;20594;-58
2023/04/04 12:30:17;;;;;;;3.90;2.50;;;13.10;98.70;;;;;;4930331;29;20240;-60
2023/04/04 12:32:47;;;;;;;3.43;2.40;;;13.30;99.40;;;;;;4927021;29;20731;-59
2023/04/04 12:35:17;;;;;;;4.47;2.20;;;13.10;98.70;;;;;;4917421;29;20720;-60
2023/04/04 12:37:59;;;;;;;3.17;2.30;;;12.90;99.40;;;;;;4917193;29;20233;-60
2023/04/04 12:40:35;;;;;;;4.10;2.30;;;12.80;99.00;;;;;;4916821;29;20739;-60
2023/04/04 12:43:08;;;;;;;3.97;2.20;;;12.50;99.50;;;;;;4917294;29;20588;-59
2023/04/04 12:45:39;;;;;;;4.77;2.33;;;12.40;99.90;;;;;;4917119;29;20240;-59
2023/04/04 12:48:12;;;;;;;4.27;2.27;;;12.60;99.90;;;;;;4917154;29;20260;-59
2023/04/04 12:50:52;;;;;;;4.80;2.07;;;12.30;97.80;;;;;;4935456;29;20235;-59
2023/04/04 12:53:22;;;;;;;3.53;2.17;;;12.20;98.50;;;;;;4935504;29;20239;-59
2023/04/04 12:55:54;;;;;;;2.97;2.10;;;12.10;99.50;;;;;;4935812;29;20592;-59
2023/04/04 12:58:24;;;;;;;2.80;1.67;;;12.10;99.60;;;;;;4935758;29;20216;-60
2023/04/04 13:00:55;;;;;;;3.83;2.30;;;12.00;98.90;;;;;;4922062;29;20331;-59
2023/04/04 13:03:24;;;;;;;6.07;2.60;;;12.00;97.20;;;;;;4930220;29;20271;-60
2023/04/04 13:05:54;;;;;;;3.70;2.30;;;12.00;98.60;;;;;;4935924;29;20235;-60
2023/04/04 13:08:22;;;;;;;4.03;2.10;;;12.20;98.00;;;;;;4935915;29;20232;-60
2023/04/04 13:11:01;;;;;;;3.87;2.10;;;12.10;98.70;;;;;;4935760;29;20720;-59